sensor_id;sensor_type;location;lat;lon;timestamp;temperature;humidity
20700;DHT22;10511;51.232;9.420;2023-08-12T00:00:58;20.40;99.90
20700;DHT22;10511;51.232;9.420;2023-08-12T00:03:25;20.40;99.90
20700;DHT22;10511;51.232;9.420;2023-08-12T00:05:54;20.50;99.90
20700;DHT22;10511;51.232;9.420;2023-08-12T00:08:22;20.40;99.90
20700;DHT22;10511;51.232;9.420;2023-08-12T00:10:49;20.30;99.90
20700;DHT22;10511;51.232;9.420;2023-08-12T00:13:16;20.30;99.90
20700;DHT22;10511;51.232;9.420;2023-08-12T00:15:43;20.30;99.90
20700;DHT22;10511;51.232;9.420;2023-08-12T00:18:10;20.10;99.90
20700;DHT22;10511;51.232;9.420;2023-08-12T00:20:37;19.80;99.90
20700;DHT22;10511;51.232;9.420;2023-08-12T00:23:06;19.60;99.90
20700;DHT22;10511;51.232;9.420;2023-08-12T00:25:33;19.50;99.90
20700;DHT22;10511;51.232;9.420;2023-08-12T00:28:00;19.40;99.90
20700;DHT22;10511;51.232;9.420;2023-08-12T00:30:27;19.40;99.90
20700;DHT22;10511;51.232;9.420;2023-08-12T00:32:54;19.40;99.90
20700;DHT22;10511;51.232;9.420;2023-08-12T00:35:21;19.40;99.90
20700;DHT22;10511;51.232;9.420;2023-08-12T00:37:48;19.50;99.90
20700;DHT22;10511;51.232;9.420;2023-08-12T00:40:16;19.60;99.90
20700;DHT22;10511;51.232;9.420;2023-08-12T00:42:43;19.60;99.90
20700;DHT22;10511;51.232;9.420;2023-08-12T00:45:12;19.70;99.90
20700;DHT22;10511;51.232;9.420;2023-08-12T00:47:40;19.70;99.90
20700;DHT22;10511;51.232;9.420;2023-08-12T00:50:09;19.70;99.90
20700;DHT22;10511;51.232;9.420;2023-08-12T00:52:37;19.80;99.90
20700;DHT22;10511;51.232;9.420;2023-08-12T00:55:04;19.90;99.90
20700;DHT22;10511;51.232;9.420;2023-08-12T00:57:33;19.90;99.90
20700;DHT22;10511;51.232;9.420;2023-08-12T01:00:00;20.00;99.90
20700;DHT22;10511;51.232;9.420;2023-08-12T01:02:29;20.00;99.90
20700;DHT22;10511;51.232;9.420;2023-08-12T01:04:56;20.10;99.90
20700;DHT22;10511;51.232;9.420;2023-08-12T01:07:24;20.10;99.90
20700;DHT22;10511;51.232;9.420;2023-08-12T01:09:51;20.10;99.90
20700;DHT22;10511;51.232;9.420;2023-08-12T01:12:24;20.10;99.90
20700;DHT22;10511;51.232;9.420;2023-08-12T01:15:01;20.20;99.90
20700;DHT22;10511;51.232;9.420;2023-08-12T01:17:29;20.30;99.90
20700;DHT22;10511;51.232;9.420;2023-08-12T01:19:59;20.20;99.90
20700;DHT22;10511;51.232;9.420;2023-08-12T01:22:27;20.00;99.90
20700;DHT22;10511;51.232;9.420;2023-08-12T01:24:59;19.70;99.90
20700;DHT22;10511;51.232;9.420;2023-08-12T01:27:26;19.50;99.90
20700;DHT22;10511;51.232;9.420;2023-08-12T01:29:53;19.50;99.90
20700;DHT22;10511;51.232;9.420;2023-08-12T01:32:25;19.60;99.90
20700;DHT22;10511;51.232;9.420;2023-08-12T01:34:57;19.70;99.90
20700;DHT22;10511;51.232;9.420;2023-08-12T01:37:29;19.70;99.90
20700;DHT22;10511;51.232;9.420;2023-08-12T01:40:01;19.80;99.90
20700;DHT22;10511;51.232;9.420;2023-08-12T01:42:30;19.80;99.90
20700;DHT22;10511;51.232;9.420;2023-08-12T01:44:58;19.80;99.90
20700;DHT22;10511;51.232;9.420;2023-08-12T01:47:26;19.80;99.90
20700;DHT22;10511;51.232;9.420;2023-08-12T01:49:52;19.80;99.90
20700;DHT22;10511;51.232;9.420;2023-08-12T01:52:19;19.80;99.90
20700;DHT22;10511;51.232;9.420;2023-08-12T01:54:46;19.90;99.90
20700;DHT22;10511;51.232;9.420;2023-08-12T01:57:14;20.00;99.90
20700;DHT22;10511;51.232;9.420;2023-08-12T01:59:41;20.00;99.90
20700;DHT22;10511;51.232;9.420;2023-08-12T02:02:09;20.10;99.90
20700;DHT22;10511;51.232;9.420;2023-08-12T02:04:37;20.00;99.90
20700;DHT22;10511;51.232;9.420;2023-08-12T02:07:04;20.00;99.90
20700;DHT22;10511;51.232;9.420;2023-08-12T02:09:31;20.10;99.90
20700;DHT22;10511;51.232;9.420;2023-08-12T02:11:58;20.10;99.90
20700;DHT22;10511;51.232;9.420;2023-08-12T02:14:26;20.00;99.90
20700;DHT22;10511;51.232;9.420;2023-08-12T02:16:53;20.00;99.90
20700;DHT22;10511;51.232;9.420;2023-08-12T02:19:20;19.90;99.90
20700;DHT22;10511;51.232;9.420;2023-08-12T02:21:46;19.90;99.90
20700;DHT22;10511;51.232;9.420;2023-08-12T02:24:13;19.90;99.90
20700;DHT22;10511;51.232;9.420;2023-08-12T02:26:40;19.80;99.90
20700;DHT22;10511;51.232;9.420;2023-08-12T02:29:07;19.80;99.90
20700;DHT22;10511;51.232;9.420;2023-08-12T02:31:35;19.80;99.90
20700;DHT22;10511;51.232;9.420;2023-08-12T02:34:02;19.80;99.90
20700;DHT22;10511;51.232;9.420;2023-08-12T02:36:29;19.60;99.90
20700;DHT22;10511;51.232;9.420;2023-08-12T02:38:56;19.60;99.90
20700;DHT22;10511;51.232;9.420;2023-08-12T02:41:23;19.50;99.90
20700;DHT22;10511;51.232;9.420;2023-08-12T02:43:50;19.60;99.90
20700;DHT22;10511;51.232;9.420;2023-08-12T02:46:17;19.60;99.90
20700;DHT22;10511;51.232;9.420;2023-08-12T02:48:45;19.60;99.90
20700;DHT22;10511;51.232;9.420;2023-08-12T02:51:13;19.70;99.90
20700;DHT22;10511;51.232;9.420;2023-08-12T02:53:40;19.70;99.90
20700;DHT22;10511;51.232;9.420;2023-08-12T02:56:07;19.80;99.90
20700;DHT22;10511;51.232;9.420;2023-08-12T02:58:34;19.80;99.90
20700;DHT22;10511;51.232;9.420;2023-08-12T03:01:03;19.80;99.90
20700;DHT22;10511;51.232;9.420;2023-08-12T03:03:30;19.50;99.90
20700;DHT22;10511;51.232;9.420;2023-08-12T03:05:59;19.50;99.90
20700;DHT22;10511;51.232;9.420;2023-08-12T03:08:26;19.50;99.90
20700;DHT22;10511;51.232;9.420;2023-08-12T03:10:58;19.50;99.90
20700;DHT22;10511;51.232;9.420;2023-08-12T03:13:26;19.50;99.90
20700;DHT22;10511;51.232;9.420;2023-08-12T03:15:53;19.50;99.90
20700;DHT22;10511;51.232;9.420;2023-08-12T03:18:20;19.40;99.90
20700;DHT22;10511;51.232;9.420;2023-08-12T03:20:47;19.30;99.90
20700;DHT22;10511;51.232;9.420;2023-08-12T03:23:15;19.20;99.90
20700;DHT22;10511;51.232;9.420;2023-08-12T03:25:42;19.10;99.90
20700;DHT22;10511;51.232;9.420;2023-08-12T03:28:09;18.90;99.90
20700;DHT22;10511;51.232;9.420;2023-08-12T03:30:36;18.80;99.90
20700;DHT22;10511;51.232;9.420;2023-08-12T03:33:03;18.70;99.90
20700;DHT22;10511;51.232;9.420;2023-08-12T03:35:30;18.60;99.90
20700;DHT22;10511;51.232;9.420;2023-08-12T03:37:57;18.60;99.90
20700;DHT22;10511;51.232;9.420;2023-08-12T03:40:26;18.50;99.90
20700;DHT22;10511;51.232;9.420;2023-08-12T03:42:53;18.50;99.90
20700;DHT22;10511;51.232;9.420;2023-08-12T03:45:19;18.40;99.90
20700;DHT22;10511;51.232;9.420;2023-08-12T03:47:46;18.30;99.90
20700;DHT22;10511;51.232;9.420;2023-08-12T03:50:13;18.20;99.90
20700;DHT22;10511;51.232;9.420;2023-08-12T03:52:40;18.10;99.90
20700;DHT22;10511;51.232;9.420;2023-08-12T03:55:08;18.00;99.90
20700;DHT22;10511;51.232;9.420;2023-08-12T03:57:37;17.90;99.90
20700;DHT22;10511;51.232;9.420;2023-08-12T04:00:05;17.90;99.90
20700;DHT22;10511;51.232;9.420;2023-08-12T04:02:33;17.80;99.90
20700;DHT22;10511;51.232;9.420;2023-08-12T04:05:00;17.80;99.90
20700;DHT22;10511;51.232;9.420;2023-08-12T04:07:27;18.00;99.90
20700;DHT22;10511;51.232;9.420;2023-08-12T04:09:55;18.00;99.90
20700;DHT22;10511;51.232;9.420;2023-08-12T04:12:22;18.00;99.90
20700;DHT22;10511;51.232;9.420;2023-08-12T04:14:50;18.20;99.90
20700;DHT22;10511;51.232;9.420;2023-08-12T04:17:17;18.40;99.90
20700;DHT22;10511;51.232;9.420;2023-08-12T04:19:44;18.50;99.90
20700;DHT22;10511;51.232;9.420;2023-08-12T04:22:11;18.50;99.90
20700;DHT22;10511;51.232;9.420;2023-08-12T04:24:38;18.60;99.90
20700;DHT22;10511;51.232;9.420;2023-08-12T04:27:05;18.50;99.90
20700;DHT22;10511;51.232;9.420;2023-08-12T04:29:32;18.40;99.90
20700;DHT22;10511;51.232;9.420;2023-08-12T04:32:00;18.40;99.90
20700;DHT22;10511;51.232;9.420;2023-08-12T04:34:27;18.20;99.90
20700;DHT22;10511;51.232;9.420;2023-08-12T04:36:54;18.10;99.90
20700;DHT22;10511;51.232;9.420;2023-08-12T04:39:21;17.90;99.90
20700;DHT22;10511;51.232;9.420;2023-08-12T04:41:48;17.90;99.90
20700;DHT22;10511;51.232;9.420;2023-08-12T04:44:15;17.90;99.90
20700;DHT22;10511;51.232;9.420;2023-08-12T04:46:42;17.80;99.90
20700;DHT22;10511;51.232;9.420;2023-08-12T04:49:11;17.80;99.90
20700;DHT22;10511;51.232;9.420;2023-08-12T04:51:38;17.70;99.90
20700;DHT22;10511;51.232;9.420;2023-08-12T04:54:05;17.60;99.90
20700;DHT22;10511;51.232;9.420;2023-08-12T04:56:32;17.50;99.90
20700;DHT22;10511;51.232;9.420;2023-08-12T04:58:59;17.50;99.90
20700;DHT22;10511;51.232;9.420;2023-08-12T05:01:26;17.60;99.90
20700;DHT22;10511;51.232;9.420;2023-08-12T05:03:53;17.60;99.90
20700;DHT22;10511;51.232;9.420;2023-08-12T05:06:22;17.70;99.90
20700;DHT22;10511;51.232;9.420;2023-08-12T05:08:50;17.90;99.90
20700;DHT22;10511;51.232;9.420;2023-08-12T05:11:17;18.00;99.90
20700;DHT22;10511;51.232;9.420;2023-08-12T05:13:43;18.00;99.90
20700;DHT22;10511;51.232;9.420;2023-08-12T05:16:11;18.20;99.90
20700;DHT22;10511;51.232;9.420;2023-08-12T05:18:38;18.30;99.90
20700;DHT22;10511;51.232;9.420;2023-08-12T05:21:06;18.40;99.90
20700;DHT22;10511;51.232;9.420;2023-08-12T05:23:34;18.50;99.90
20700;DHT22;10511;51.232;9.420;2023-08-12T05:26:01;18.60;99.90
20700;DHT22;10511;51.232;9.420;2023-08-12T05:28:28;18.70;99.90
20700;DHT22;10511;51.232;9.420;2023-08-12T05:30:55;18.80;99.90
20700;DHT22;10511;51.232;9.420;2023-08-12T05:33:22;18.80;99.90
20700;DHT22;10511;51.232;9.420;2023-08-12T05:35:52;18.80;99.90
20700;DHT22;10511;51.232;9.420;2023-08-12T05:38:21;18.90;99.90
20700;DHT22;10511;51.232;9.420;2023-08-12T05:40:54;19.00;99.90
20700;DHT22;10511;51.232;9.420;2023-08-12T05:43:22;19.00;99.90
20700;DHT22;10511;51.232;9.420;2023-08-12T05:45:51;19.00;99.90
20700;DHT22;10511;51.232;9.420;2023-08-12T05:48:20;18.90;99.90
20700;DHT22;10511;51.232;9.420;2023-08-12T05:50:49;18.90;99.90
20700;DHT22;10511;51.232;9.420;2023-08-12T05:53:17;18.80;99.90
20700;DHT22;10511;51.232;9.420;2023-08-12T05:55:44;18.80;99.90
20700;DHT22;10511;51.232;9.420;2023-08-12T05:58:13;18.80;99.90
20700;DHT22;10511;51.232;9.420;2023-08-12T06:00:40;18.80;99.90
20700;DHT22;10511;51.232;9.420;2023-08-12T06:03:10;18.70;99.90
20700;DHT22;10511;51.232;9.420;2023-08-12T06:05:37;18.50;99.90
20700;DHT22;10511;51.232;9.420;2023-08-12T06:08:05;18.30;99.90
20700;DHT22;10511;51.232;9.420;2023-08-12T06:10:33;18.20;99.90
20700;DHT22;10511;51.232;9.420;2023-08-12T06:13:00;18.10;99.90
20700;DHT22;10511;51.232;9.420;2023-08-12T06:15:28;18.00;99.90
20700;DHT22;10511;51.232;9.420;2023-08-12T06:17:56;18.00;99.90
20700;DHT22;10511;51.232;9.420;2023-08-12T06:20:23;17.90;99.90
20700;DHT22;10511;51.232;9.420;2023-08-12T06:22:51;17.70;99.90
20700;DHT22;10511;51.232;9.420;2023-08-12T06:25:18;17.70;99.90
20700;DHT22;10511;51.232;9.420;2023-08-12T06:27:45;17.50;99.90
20700;DHT22;10511;51.232;9.420;2023-08-12T06:30:13;17.40;99.90
20700;DHT22;10511;51.232;9.420;2023-08-12T06:32:42;17.40;99.90
20700;DHT22;10511;51.232;9.420;2023-08-12T06:35:09;17.30;99.90
20700;DHT22;10511;51.232;9.420;2023-08-12T06:37:36;17.40;99.90
20700;DHT22;10511;51.232;9.420;2023-08-12T06:40:03;17.40;99.90
20700;DHT22;10511;51.232;9.420;2023-08-12T06:42:30;17.50;99.90
20700;DHT22;10511;51.232;9.420;2023-08-12T06:44:58;17.70;99.90
20700;DHT22;10511;51.232;9.420;2023-08-12T06:47:26;17.80;99.90
20700;DHT22;10511;51.232;9.420;2023-08-12T06:49:56;17.90;99.90
20700;DHT22;10511;51.232;9.420;2023-08-12T06:52:23;18.10;99.90
20700;DHT22;10511;51.232;9.420;2023-08-12T06:54:50;18.20;99.90
20700;DHT22;10511;51.232;9.420;2023-08-12T06:57:17;18.20;99.90
20700;DHT22;10511;51.232;9.420;2023-08-12T06:59:44;18.30;99.90
20700;DHT22;10511;51.232;9.420;2023-08-12T07:02:12;18.40;99.90
20700;DHT22;10511;51.232;9.420;2023-08-12T07:04:39;18.50;99.90
20700;DHT22;10511;51.232;9.420;2023-08-12T07:07:07;18.60;99.90
20700;DHT22;10511;51.232;9.420;2023-08-12T07:09:34;18.70;99.90
20700;DHT22;10511;51.232;9.420;2023-08-12T07:12:01;18.90;99.90
20700;DHT22;10511;51.232;9.420;2023-08-12T07:14:29;18.90;99.90
20700;DHT22;10511;51.232;9.420;2023-08-12T07:16:55;19.00;99.90
20700;DHT22;10511;51.232;9.420;2023-08-12T07:19:22;19.00;99.90
20700;DHT22;10511;51.232;9.420;2023-08-12T07:21:49;19.10;99.90
20700;DHT22;10511;51.232;9.420;2023-08-12T07:24:18;19.20;99.90
20700;DHT22;10511;51.232;9.420;2023-08-12T07:26:45;19.30;99.90
20700;DHT22;10511;51.232;9.420;2023-08-12T07:29:14;19.30;99.90
20700;DHT22;10511;51.232;9.420;2023-08-12T07:31:41;19.40;99.90
20700;DHT22;10511;51.232;9.420;2023-08-12T07:34:08;19.40;99.90
20700;DHT22;10511;51.232;9.420;2023-08-12T07:36:38;19.30;99.90
20700;DHT22;10511;51.232;9.420;2023-08-12T07:39:05;19.20;99.90
20700;DHT22;10511;51.232;9.420;2023-08-12T07:41:34;19.20;99.90
20700;DHT22;10511;51.232;9.420;2023-08-12T07:44:01;19.20;99.90
20700;DHT22;10511;51.232;9.420;2023-08-12T07:46:28;19.30;99.90
20700;DHT22;10511;51.232;9.420;2023-08-12T07:48:55;19.20;99.90
20700;DHT22;10511;51.232;9.420;2023-08-12T07:51:22;19.30;99.90
20700;DHT22;10511;51.232;9.420;2023-08-12T07:53:49;19.30;99.90
20700;DHT22;10511;51.232;9.420;2023-08-12T07:56:16;19.40;99.90
20700;DHT22;10511;51.232;9.420;2023-08-12T07:58:44;19.50;99.90
20700;DHT22;10511;51.232;9.420;2023-08-12T08:01:11;19.60;99.90
20700;DHT22;10511;51.232;9.420;2023-08-12T08:03:39;19.80;99.90
20700;DHT22;10511;51.232;9.420;2023-08-12T08:06:06;19.90;99.90
20700;DHT22;10511;51.232;9.420;2023-08-12T08:08:33;20.00;99.90
20700;DHT22;10511;51.232;9.420;2023-08-12T08:11:00;20.10;99.90
20700;DHT22;10511;51.232;9.420;2023-08-12T08:13:27;20.20;99.90
20700;DHT22;10511;51.232;9.420;2023-08-12T08:15:56;20.40;99.90
20700;DHT22;10511;51.232;9.420;2023-08-12T08:18:23;20.50;99.90
20700;DHT22;10511;51.232;9.420;2023-08-12T08:20:50;20.50;99.90
20700;DHT22;10511;51.232;9.420;2023-08-12T08:23:17;20.60;99.90
20700;DHT22;10511;51.232;9.420;2023-08-12T08:25:44;20.70;99.90
20700;DHT22;10511;51.232;9.420;2023-08-12T08:28:11;20.80;99.90
20700;DHT22;10511;51.232;9.420;2023-08-12T08:30:38;20.90;99.90
20700;DHT22;10511;51.232;9.420;2023-08-12T08:33:06;21.00;99.90
20700;DHT22;10511;51.232;9.420;2023-08-12T08:35:33;21.10;99.90
20700;DHT22;10511;51.232;9.420;2023-08-12T08:38:00;21.10;99.90
20700;DHT22;10511;51.232;9.420;2023-08-12T08:40:28;21.10;99.90
20700;DHT22;10511;51.232;9.420;2023-08-12T08:42:58;21.10;99.90
20700;DHT22;10511;51.232;9.420;2023-08-12T08:45:31;21.20;99.90
20700;DHT22;10511;51.232;9.420;2023-08-12T08:48:00;21.30;99.90
20700;DHT22;10511;51.232;9.420;2023-08-12T08:50:30;21.30;99.90
20700;DHT22;10511;51.232;9.420;2023-08-12T08:52:57;21.40;99.90
20700;DHT22;10511;51.232;9.420;2023-08-12T08:55:24;21.40;99.90
20700;DHT22;10511;51.232;9.420;2023-08-12T08:57:51;21.50;99.90
20700;DHT22;10511;51.232;9.420;2023-08-12T09:00:19;21.60;99.90
20700;DHT22;10511;51.232;9.420;2023-08-12T09:02:47;21.70;99.90
20700;DHT22;10511;51.232;9.420;2023-08-12T09:05:15;21.70;99.90
20700;DHT22;10511;51.232;9.420;2023-08-12T09:07:44;21.80;99.90
20700;DHT22;10511;51.232;9.420;2023-08-12T09:10:12;21.90;99.90
20700;DHT22;10511;51.232;9.420;2023-08-12T09:12:39;21.90;99.90
20700;DHT22;10511;51.232;9.420;2023-08-12T09:15:07;21.90;99.90
20700;DHT22;10511;51.232;9.420;2023-08-12T09:17:35;21.80;99.90
20700;DHT22;10511;51.232;9.420;2023-08-12T09:20:02;21.80;99.90
20700;DHT22;10511;51.232;9.420;2023-08-12T09:22:33;21.80;99.90
20700;DHT22;10511;51.232;9.420;2023-08-12T09:25:09;21.80;99.90
20700;DHT22;10511;51.232;9.420;2023-08-12T09:27:36;21.80;99.90
20700;DHT22;10511;51.232;9.420;2023-08-12T09:30:04;21.80;99.90
20700;DHT22;10511;51.232;9.420;2023-08-12T09:32:31;21.90;99.90
20700;DHT22;10511;51.232;9.420;2023-08-12T09:35:03;21.90;99.90
20700;DHT22;10511;51.232;9.420;2023-08-12T09:37:34;21.90;99.90
20700;DHT22;10511;51.232;9.420;2023-08-12T09:40:01;21.80;99.90
20700;DHT22;10511;51.232;9.420;2023-08-12T09:42:33;21.90;99.90
20700;DHT22;10511;51.232;9.420;2023-08-12T09:45:00;22.00;99.90
20700;DHT22;10511;51.232;9.420;2023-08-12T09:47:27;22.20;99.90
20700;DHT22;10511;51.232;9.420;2023-08-12T09:49:55;22.20;99.90
20700;DHT22;10511;51.232;9.420;2023-08-12T09:52:22;22.30;99.90
20700;DHT22;10511;51.232;9.420;2023-08-12T09:54:49;22.30;99.90
20700;DHT22;10511;51.232;9.420;2023-08-12T09:57:19;22.40;99.90
20700;DHT22;10511;51.232;9.420;2023-08-12T09:59:51;22.40;99.90
20700;DHT22;10511;51.232;9.420;2023-08-12T10:02:20;22.40;99.90
20700;DHT22;10511;51.232;9.420;2023-08-12T10:04:50;22.30;99.90
20700;DHT22;10511;51.232;9.420;2023-08-12T10:07:21;22.40;99.90
20700;DHT22;10511;51.232;9.420;2023-08-12T10:09:49;22.50;99.90
20700;DHT22;10511;51.232;9.420;2023-08-12T10:12:17;22.40;99.90
20700;DHT22;10511;51.232;9.420;2023-08-12T10:14:45;22.50;99.90
20700;DHT22;10511;51.232;9.420;2023-08-12T10:17:14;22.60;99.90
20700;DHT22;10511;51.232;9.420;2023-08-12T10:19:44;22.60;99.90
20700;DHT22;10511;51.232;9.420;2023-08-12T10:22:11;22.60;99.90
20700;DHT22;10511;51.232;9.420;2023-08-12T10:24:42;22.60;99.90
20700;DHT22;10511;51.232;9.420;2023-08-12T10:27:10;22.70;99.90
20700;DHT22;10511;51.232;9.420;2023-08-12T10:29:38;22.70;99.90
20700;DHT22;10511;51.232;9.420;2023-08-12T10:32:06;22.80;99.90
20700;DHT22;10511;51.232;9.420;2023-08-12T10:34:34;22.80;99.90
20700;DHT22;10511;51.232;9.420;2023-08-12T10:37:02;22.80;99.90
20700;DHT22;10511;51.232;9.420;2023-08-12T10:39:32;22.90;99.90
20700;DHT22;10511;51.232;9.420;2023-08-12T10:41:59;22.90;99.90
20700;DHT22;10511;51.232;9.420;2023-08-12T10:44:27;22.90;99.90
20700;DHT22;10511;51.232;9.420;2023-08-12T10:46:54;22.90;99.90
20700;DHT22;10511;51.232;9.420;2023-08-12T10:49:22;22.90;99.90
20700;DHT22;10511;51.232;9.420;2023-08-12T10:51:51;22.90;99.90
20700;DHT22;10511;51.232;9.420;2023-08-12T10:54:23;22.90;99.90
20700;DHT22;10511;51.232;9.420;2023-08-12T10:57:08;22.90;99.90
20700;DHT22;10511;51.232;9.420;2023-08-12T10:59:51;22.90;99.90
20700;DHT22;10511;51.232;9.420;2023-08-12T11:02:21;22.90;99.90
20700;DHT22;10511;51.232;9.420;2023-08-12T11:04:49;22.90;99.90
20700;DHT22;10511;51.232;9.420;2023-08-12T11:07:20;23.00;99.90
20700;DHT22;10511;51.232;9.420;2023-08-12T11:09:51;23.10;99.90
20700;DHT22;10511;51.232;9.420;2023-08-12T11:12:28;23.20;99.90
20700;DHT22;10511;51.232;9.420;2023-08-12T11:14:58;23.40;99.90
20700;DHT22;10511;51.232;9.420;2023-08-12T11:17:33;23.40;99.90
20700;DHT22;10511;51.232;9.420;2023-08-12T11:20:01;23.50;99.90
20700;DHT22;10511;51.232;9.420;2023-08-12T11:22:31;23.40;99.90
20700;DHT22;10511;51.232;9.420;2023-08-12T11:24:59;23.40;99.90
20700;DHT22;10511;51.232;9.420;2023-08-12T11:27:27;23.40;99.90
20700;DHT22;10511;51.232;9.420;2023-08-12T11:29:54;23.40;99.90
20700;DHT22;10511;51.232;9.420;2023-08-12T11:32:21;23.40;99.90
20700;DHT22;10511;51.232;9.420;2023-08-12T11:34:47;23.50;99.90
20700;DHT22;10511;51.232;9.420;2023-08-12T11:37:15;23.60;99.90
20700;DHT22;10511;51.232;9.420;2023-08-12T11:39:43;23.70;99.90
20700;DHT22;10511;51.232;9.420;2023-08-12T11:42:10;23.70;99.90
20700;DHT22;10511;51.232;9.420;2023-08-12T11:44:39;23.50;99.90
20700;DHT22;10511;51.232;9.420;2023-08-12T11:47:07;23.50;99.90
20700;DHT22;10511;51.232;9.420;2023-08-12T11:49:34;23.60;99.90
20700;DHT22;10511;51.232;9.420;2023-08-12T11:52:01;23.60;99.90
20700;DHT22;10511;51.232;9.420;2023-08-12T11:54:29;23.70;99.90
20700;DHT22;10511;51.232;9.420;2023-08-12T11:56:58;23.70;99.90
20700;DHT22;10511;51.232;9.420;2023-08-12T11:59:25;23.60;99.90
20700;DHT22;10511;51.232;9.420;2023-08-12T12:01:54;23.60;99.90
20700;DHT22;10511;51.232;9.420;2023-08-12T12:04:22;23.40;99.90
20700;DHT22;10511;51.232;9.420;2023-08-12T12:06:49;23.40;99.90
20700;DHT22;10511;51.232;9.420;2023-08-12T12:09:16;23.30;99.90
20700;DHT22;10511;51.232;9.420;2023-08-12T12:11:44;23.20;99.90
20700;DHT22;10511;51.232;9.420;2023-08-12T12:14:13;23.30;99.90
20700;DHT22;10511;51.232;9.420;2023-08-12T12:16:41;23.40;99.90
20700;DHT22;10511;51.232;9.420;2023-08-12T12:19:15;23.40;99.90
20700;DHT22;10511;51.232;9.420;2023-08-12T12:21:45;23.40;99.90
20700;DHT22;10511;51.232;9.420;2023-08-12T12:24:12;23.60;99.90
20700;DHT22;10511;51.232;9.420;2023-08-12T12:26:39;23.60;99.90
20700;DHT22;10511;51.232;9.420;2023-08-12T12:29:07;23.60;99.90
20700;DHT22;10511;51.232;9.420;2023-08-12T12:31:41;23.60;99.90
20700;DHT22;10511;51.232;9.420;2023-08-12T12:34:08;23.70;99.90
20700;DHT22;10511;51.232;9.420;2023-08-12T12:36:37;23.70;99.90
20700;DHT22;10511;51.232;9.420;2023-08-12T12:39:04;23.80;99.90
20700;DHT22;10511;51.232;9.420;2023-08-12T12:41:32;23.90;99.90
20700;DHT22;10511;51.232;9.420;2023-08-12T12:43:59;24.00;99.90
20700;DHT22;10511;51.232;9.420;2023-08-12T12:46:26;24.20;99.90
20700;DHT22;10511;51.232;9.420;2023-08-12T12:48:55;24.50;99.90
20700;DHT22;10511;51.232;9.420;2023-08-12T12:51:22;24.60;99.90
20700;DHT22;10511;51.232;9.420;2023-08-12T12:53:49;24.60;99.90
20700;DHT22;10511;51.232;9.420;2023-08-12T12:56:16;24.60;99.90
20700;DHT22;10511;51.232;9.420;2023-08-12T12:58:42;24.70;99.90
20700;DHT22;10511;51.232;9.420;2023-08-12T13:01:09;24.60;99.90
20700;DHT22;10511;51.232;9.420;2023-08-12T13:03:36;24.50;99.90
20700;DHT22;10511;51.232;9.420;2023-08-12T13:06:05;24.30;99.90
20700;DHT22;10511;51.232;9.420;2023-08-12T13:08:32;24.20;99.90
20700;DHT22;10511;51.232;9.420;2023-08-12T13:10:59;24.20;99.90
20700;DHT22;10511;51.232;9.420;2023-08-12T13:13:26;24.20;99.90
20700;DHT22;10511;51.232;9.420;2023-08-12T13:15:53;24.00;99.90
20700;DHT22;10511;51.232;9.420;2023-08-12T13:18:20;24.00;99.90
20700;DHT22;10511;51.232;9.420;2023-08-12T13:20:47;24.00;99.90
20700;DHT22;10511;51.232;9.420;2023-08-12T13:23:15;24.00;99.90
20700;DHT22;10511;51.232;9.420;2023-08-12T13:25:42;24.00;99.90
20700;DHT22;10511;51.232;9.420;2023-08-12T13:28:09;23.90;99.90
20700;DHT22;10511;51.232;9.420;2023-08-12T13:30:36;24.00;99.90
20700;DHT22;10511;51.232;9.420;2023-08-12T13:33:04;24.00;99.90
20700;DHT22;10511;51.232;9.420;2023-08-12T13:35:31;24.00;99.90
20700;DHT22;10511;51.232;9.420;2023-08-12T13:37:58;24.00;99.90
20700;DHT22;10511;51.232;9.420;2023-08-12T13:40:27;24.00;99.90
20700;DHT22;10511;51.232;9.420;2023-08-12T13:42:54;23.80;99.90
20700;DHT22;10511;51.232;9.420;2023-08-12T13:45:21;23.70;99.90
20700;DHT22;10511;51.232;9.420;2023-08-12T13:47:50;23.70;99.90
20700;DHT22;10511;51.232;9.420;2023-08-12T13:50:17;23.70;99.90
20700;DHT22;10511;51.232;9.420;2023-08-12T13:52:45;23.70;99.90
20700;DHT22;10511;51.232;9.420;2023-08-12T13:55:13;23.80;99.90
20700;DHT22;10511;51.232;9.420;2023-08-12T13:57:41;23.80;99.90
20700;DHT22;10511;51.232;9.420;2023-08-12T14:00:20;23.80;99.90
20700;DHT22;10511;51.232;9.420;2023-08-12T14:02:50;23.90;99.90
20700;DHT22;10511;51.232;9.420;2023-08-12T14:05:17;23.90;99.90
20700;DHT22;10511;51.232;9.420;2023-08-12T14:07:44;23.90;99.90
20700;DHT22;10511;51.232;9.420;2023-08-12T14:10:11;23.80;99.90
20700;DHT22;10511;51.232;9.420;2023-08-12T14:12:38;23.80;99.90
20700;DHT22;10511;51.232;9.420;2023-08-12T14:15:07;23.80;99.90
20700;DHT22;10511;51.232;9.420;2023-08-12T14:17:34;23.80;99.90
20700;DHT22;10511;51.232;9.420;2023-08-12T14:20:01;23.90;99.90
20700;DHT22;10511;51.232;9.420;2023-08-12T14:22:30;24.20;99.90
20700;DHT22;10511;51.232;9.420;2023-08-12T14:24:57;24.50;99.90
20700;DHT22;10511;51.232;9.420;2023-08-12T14:27:24;24.80;99.90
20700;DHT22;10511;51.232;9.420;2023-08-12T14:29:51;25.00;99.90
20700;DHT22;10511;51.232;9.420;2023-08-12T14:32:19;25.00;99.90
20700;DHT22;10511;51.232;9.420;2023-08-12T14:34:46;24.80;99.90
20700;DHT22;10511;51.232;9.420;2023-08-12T14:37:13;24.60;99.90
20700;DHT22;10511;51.232;9.420;2023-08-12T14:39:40;24.50;99.90
20700;DHT22;10511;51.232;9.420;2023-08-12T14:42:07;24.30;99.90
20700;DHT22;10511;51.232;9.420;2023-08-12T14:44:35;24.20;99.90
20700;DHT22;10511;51.232;9.420;2023-08-12T14:47:02;24.20;99.90
20700;DHT22;10511;51.232;9.420;2023-08-12T14:49:31;24.20;99.90
20700;DHT22;10511;51.232;9.420;2023-08-12T14:51:58;24.10;99.90
20700;DHT22;10511;51.232;9.420;2023-08-12T14:54:25;24.10;99.90
20700;DHT22;10511;51.232;9.420;2023-08-12T14:56:52;24.10;99.90
20700;DHT22;10511;51.232;9.420;2023-08-12T14:59:19;24.40;99.90
20700;DHT22;10511;51.232;9.420;2023-08-12T15:01:46;24.60;99.90
20700;DHT22;10511;51.232;9.420;2023-08-12T15:04:13;24.90;99.90
20700;DHT22;10511;51.232;9.420;2023-08-12T15:06:41;25.00;99.90
20700;DHT22;10511;51.232;9.420;2023-08-12T15:09:08;24.90;99.90
20700;DHT22;10511;51.232;9.420;2023-08-12T15:11:35;24.90;99.90
20700;DHT22;10511;51.232;9.420;2023-08-12T15:14:03;24.70;99.90
20700;DHT22;10511;51.232;9.420;2023-08-12T15:16:33;24.70;99.90
20700;DHT22;10511;51.232;9.420;2023-08-12T15:19:00;24.70;99.90
20700;DHT22;10511;51.232;9.420;2023-08-12T15:21:27;24.50;99.90
20700;DHT22;10511;51.232;9.420;2023-08-12T15:23:55;24.40;99.90
20700;DHT22;10511;51.232;9.420;2023-08-12T15:26:23;24.30;99.90
20700;DHT22;10511;51.232;9.420;2023-08-12T15:28:50;24.30;99.90
20700;DHT22;10511;51.232;9.420;2023-08-12T15:31:17;24.30;99.90
20700;DHT22;10511;51.232;9.420;2023-08-12T15:33:44;24.20;99.90